Ever Diamond — 3FQS8 — position and weather

sailwx.info

Track history (hours):
 
Tides and Currents Weather Stations Pressure Air Temp Water Temp Dewpoint Dewpoint Depression Visibility Wind Speed Wind Dir Waves Ship Positions

Ever Diamond

Last reported at 2018-Jan-09 09:27 UTC. Time now 2018-Jan-20 11:13 UTC.
Position N 01°15' E 104°08'.
Warning: this ship's position is 11 days out of date.

Type: Ship (hazmat cat D). MMSI: 354893000.

Date/timePositionNaut miles runAvg speedWind from/ knotsBaromVisibWave heightAir tempDewpointWater temp
2018-Jan-09 09:27N 01°15' E 104°08'817.0
2018-Jan-09 08:58N 01°14' E 103°60'613.6
2018-Jan-09 08:31N 01°13' E 103°54'4 8.0
2018-Jan-09 07:59N 01°16' E 103°51'1 1.0
2018-Jan-09 07:19N 01°16' E 103°50'0 0.0
2018-Jan-09 06:58N 01°16' E 103°50'0 0.0
2018-Jan-09 06:25N 01°16' E 103°50'0 0.0
2018-Jan-09 05:19N 01°16' E 103°50'0 0.0
2018-Jan-09 04:55N 01°16' E 103°50'0 0.0
2018-Jan-09 04:07N 01°16' E 103°50'0 0.0
2018-Jan-09 03:55N 01°16' E 103°50'0 0.0
2018-Jan-09 03:13N 01°16' E 103°50'0 0.0
2018-Jan-09 02:43N 01°16' E 103°50'0 0.0
2018-Jan-09 02:28N 01°16' E 103°50'0 0.0
2018-Jan-09 01:43N 01°16' E 103°50'0 0.0
2018-Jan-09 01:22N 01°16' E 103°50'0 0.0
2018-Jan-09 00:55N 01°16' E 103°50'0 0.0
2018-Jan-09 00:29N 01°16' E 103°50'0 1.0
2018-Jan-09 00:00N 01°16' E 103°51'1 2.4
2018-Jan-08 23:30N 01°15' E 103°52'3 5.1
2018-Jan-08 23:01N 01°13' E 103°54'3 5.0
2018-Jan-08 22:30N 01°12' E 103°52'4 9.0
2018-Jan-08 22:01N 01°10' E 103°48'4 8.8
2018-Jan-08 21:30N 01°07' E 103°45'5 9.9
2018-Jan-08 20:59N 01°03' E 103°41'510.1
2018-Jan-08 20:30N 01°03' E 103°36'713.6
2018-Jan-08 20:01N 01°07' E 103°30'814.9
2018-Jan-08 19:30N 01°12' E 103°24'714.9
2018-Jan-08 19:01N 01°17' E 103°19'  
Track history (hours):
 
Tides and Currents Weather Stations Pressure Air Temp Water Temp Dewpoint Dewpoint Depression Visibility Wind Speed Wind Dir Waves Ship Positions

Ever Diamond

Last reported at 2018-Jan-09 09:27 UTC. Time now 2018-Jan-20 11:13 UTC.
Position N 01°15' E 104°08'.
Warning: this ship's position is 11 days out of date.

Type: Ship (hazmat cat D). MMSI: 354893000.

Date/timePositionNaut miles runAvg speedWind from/ knotsBaromVisibWave heightAir tempDewpointWater temp
2018-Jan-09 09:27N 01°15' E 104°08'817.0
2018-Jan-09 08:58N 01°14' E 103°60'613.6
2018-Jan-09 08:31N 01°13' E 103°54'4 8.0
2018-Jan-09 07:59N 01°16' E 103°51'1 1.0
2018-Jan-09 07:19N 01°16' E 103°50'0 0.0
2018-Jan-09 06:58N 01°16' E 103°50'0 0.0
2018-Jan-09 06:25N 01°16' E 103°50'0 0.0
2018-Jan-09 05:19N 01°16' E 103°50'0 0.0
2018-Jan-09 04:55N 01°16' E 103°50'0 0.0
2018-Jan-09 04:07N 01°16' E 103°50'0 0.0
2018-Jan-09 03:55N 01°16' E 103°50'0 0.0
2018-Jan-09 03:13N 01°16' E 103°50'0 0.0
2018-Jan-09 02:43N 01°16' E 103°50'0 0.0
2018-Jan-09 02:28N 01°16' E 103°50'0 0.0
2018-Jan-09 01:43N 01°16' E 103°50'0 0.0
2018-Jan-09 01:22N 01°16' E 103°50'0 0.0
2018-Jan-09 00:55N 01°16' E 103°50'0 0.0
2018-Jan-09 00:29N 01°16' E 103°50'0 1.0
2018-Jan-09 00:00N 01°16' E 103°51'1 2.4
2018-Jan-08 23:30N 01°15' E 103°52'3 5.1
2018-Jan-08 23:01N 01°13' E 103°54'3 5.0
2018-Jan-08 22:30N 01°12' E 103°52'4 9.0
2018-Jan-08 22:01N 01°10' E 103°48'4 8.8
2018-Jan-08 21:30N 01°07' E 103°45'5 9.9
2018-Jan-08 20:59N 01°03' E 103°41'510.1
2018-Jan-08 20:30N 01°03' E 103°36'713.6
2018-Jan-08 20:01N 01°07' E 103°30'814.9
2018-Jan-08 19:30N 01°12' E 103°24'714.9
2018-Jan-08 19:01N 01°17' E 103°19'  

Dump ship's entire track history